sensor_id;sensor_type;location;lat;lon;timestamp;P1;durP1;ratioP1;P2;durP2;ratioP2
31638;SDS011;18248;51.522;7.020;2023-01-23T00:01:15;37.92;;;21.27;;
31638;SDS011;18248;51.522;7.020;2023-01-23T00:04:16;37.70;;;22.60;;
31638;SDS011;18248;51.522;7.020;2023-01-23T00:07:14;42.63;;;21.95;;
31638;SDS011;18248;51.522;7.020;2023-01-23T00:10:13;38.40;;;21.15;;
31638;SDS011;18248;51.522;7.020;2023-01-23T00:13:11;41.75;;;21.65;;
31638;SDS011;18248;51.522;7.020;2023-01-23T00:16:15;36.53;;;21.77;;
31638;SDS011;18248;51.522;7.020;2023-01-23T00:19:16;38.10;;;22.38;;
31638;SDS011;18248;51.522;7.020;2023-01-23T00:22:14;38.97;;;22.10;;
31638;SDS011;18248;51.522;7.020;2023-01-23T00:25:14;40.33;;;21.38;;
31638;SDS011;18248;51.522;7.020;2023-01-23T00:28:12;33.55;;;19.45;;
31638;SDS011;18248;51.522;7.020;2023-01-23T00:31:15;33.00;;;19.60;;
31638;SDS011;18248;51.522;7.020;2023-01-23T00:34:18;37.13;;;21.15;;
31638;SDS011;18248;51.522;7.020;2023-01-23T00:37:17;32.42;;;19.35;;
31638;SDS011;18248;51.522;7.020;2023-01-23T00:40:15;29.73;;;18.70;;
31638;SDS011;18248;51.522;7.020;2023-01-23T00:43:14;34.03;;;17.65;;
31638;SDS011;18248;51.522;7.020;2023-01-23T00:46:13;29.55;;;18.27;;
31638;SDS011;18248;51.522;7.020;2023-01-23T00:49:12;37.03;;;20.30;;
31638;SDS011;18248;51.522;7.020;2023-01-23T00:52:10;35.30;;;18.45;;
31638;SDS011;18248;51.522;7.020;2023-01-23T00:55:09;35.78;;;19.85;;
31638;SDS011;18248;51.522;7.020;2023-01-23T00:58:08;34.55;;;19.65;;
31638;SDS011;18248;51.522;7.020;2023-01-23T01:01:07;34.55;;;19.55;;
31638;SDS011;18248;51.522;7.020;2023-01-23T01:04:06;31.45;;;17.55;;
31638;SDS011;18248;51.522;7.020;2023-01-23T01:07:04;33.92;;;19.45;;
31638;SDS011;18248;51.522;7.020;2023-01-23T01:10:03;33.33;;;17.27;;
31638;SDS011;18248;51.522;7.020;2023-01-23T01:13:02;28.45;;;16.70;;
31638;SDS011;18248;51.522;7.020;2023-01-23T01:16:00;30.17;;;17.17;;
31638;SDS011;18248;51.522;7.020;2023-01-23T01:18:59;33.45;;;18.52;;
31638;SDS011;18248;51.522;7.020;2023-01-23T01:21:58;31.73;;;18.65;;
31638;SDS011;18248;51.522;7.020;2023-01-23T01:24:56;30.80;;;18.05;;
31638;SDS011;18248;51.522;7.020;2023-01-23T01:27:55;33.65;;;17.52;;
31638;SDS011;18248;51.522;7.020;2023-01-23T01:30:53;31.52;;;19.30;;
31638;SDS011;18248;51.522;7.020;2023-01-23T01:33:52;31.15;;;18.73;;
31638;SDS011;18248;51.522;7.020;2023-01-23T01:36:51;34.80;;;20.70;;
31638;SDS011;18248;51.522;7.020;2023-01-23T01:39:50;35.13;;;20.80;;
31638;SDS011;18248;51.522;7.020;2023-01-23T01:42:51;35.38;;;20.20;;
31638;SDS011;18248;51.522;7.020;2023-01-23T01:49:19;33.13;;;20.30;;
31638;SDS011;18248;51.522;7.020;2023-01-23T01:52:23;37.83;;;21.75;;
31638;SDS011;18248;51.522;7.020;2023-01-23T01:55:23;32.05;;;18.63;;
31638;SDS011;18248;51.522;7.020;2023-01-23T01:58:22;35.83;;;20.63;;
31638;SDS011;18248;51.522;7.020;2023-01-23T02:01:21;40.05;;;21.80;;
31638;SDS011;18248;51.522;7.020;2023-01-23T02:04:20;36.95;;;21.67;;
31638;SDS011;18248;51.522;7.020;2023-01-23T02:07:53;37.33;;;21.95;;
31638;SDS011;18248;51.522;7.020;2023-01-23T02:11:02;38.70;;;22.80;;
31638;SDS011;18248;51.522;7.020;2023-01-23T02:14:02;36.88;;;20.75;;
31638;SDS011;18248;51.522;7.020;2023-01-23T02:17:00;33.65;;;20.58;;
31638;SDS011;18248;51.522;7.020;2023-01-23T02:26:45;35.97;;;21.02;;
31638;SDS011;18248;51.522;7.020;2023-01-23T02:29:44;37.30;;;21.08;;
31638;SDS011;18248;51.522;7.020;2023-01-23T02:32:45;35.85;;;20.60;;
31638;SDS011;18248;51.522;7.020;2023-01-23T02:35:44;40.28;;;22.92;;
31638;SDS011;18248;51.522;7.020;2023-01-23T02:41:59;33.85;;;20.52;;
31638;SDS011;18248;51.522;7.020;2023-01-23T02:44:58;37.70;;;21.92;;
31638;SDS011;18248;51.522;7.020;2023-01-23T02:47:57;32.58;;;20.90;;
31638;SDS011;18248;51.522;7.020;2023-01-23T02:50:58;35.25;;;21.58;;
31638;SDS011;18248;51.522;7.020;2023-01-23T02:53:57;35.67;;;20.98;;
31638;SDS011;18248;51.522;7.020;2023-01-23T02:56:55;37.17;;;22.08;;
31638;SDS011;18248;51.522;7.020;2023-01-23T02:59:54;39.67;;;21.90;;
31638;SDS011;18248;51.522;7.020;2023-01-23T03:03:11;31.10;;;18.10;;
31638;SDS011;18248;51.522;7.020;2023-01-23T03:06:10;35.13;;;19.13;;
31638;SDS011;18248;51.522;7.020;2023-01-23T03:09:10;36.92;;;19.75;;
31638;SDS011;18248;51.522;7.020;2023-01-23T03:12:12;33.47;;;20.23;;
31638;SDS011;18248;51.522;7.020;2023-01-23T03:15:12;33.20;;;19.92;;
31638;SDS011;18248;51.522;7.020;2023-01-23T03:18:10;34.60;;;20.55;;
31638;SDS011;18248;51.522;7.020;2023-01-23T03:21:09;35.45;;;20.88;;
31638;SDS011;18248;51.522;7.020;2023-01-23T03:24:10;34.38;;;20.15;;
31638;SDS011;18248;51.522;7.020;2023-01-23T03:27:09;31.67;;;19.55;;
31638;SDS011;18248;51.522;7.020;2023-01-23T03:30:10;32.28;;;19.10;;
31638;SDS011;18248;51.522;7.020;2023-01-23T03:33:10;32.05;;;20.02;;
31638;SDS011;18248;51.522;7.020;2023-01-23T03:36:09;38.22;;;22.27;;
31638;SDS011;18248;51.522;7.020;2023-01-23T03:39:09;33.80;;;19.95;;
31638;SDS011;18248;51.522;7.020;2023-01-23T03:42:26;32.70;;;20.23;;
31638;SDS011;18248;51.522;7.020;2023-01-23T03:45:24;34.75;;;20.20;;
31638;SDS011;18248;51.522;7.020;2023-01-23T03:48:23;34.40;;;20.52;;
31638;SDS011;18248;51.522;7.020;2023-01-23T03:51:21;33.65;;;19.95;;
31638;SDS011;18248;51.522;7.020;2023-01-23T03:54:20;34.22;;;19.60;;
31638;SDS011;18248;51.522;7.020;2023-01-23T03:57:18;36.90;;;21.65;;
31638;SDS011;18248;51.522;7.020;2023-01-23T04:00:17;41.45;;;22.38;;
31638;SDS011;18248;51.522;7.020;2023-01-23T04:03:16;34.90;;;20.60;;
31638;SDS011;18248;51.522;7.020;2023-01-23T04:06:14;35.42;;;20.45;;
31638;SDS011;18248;51.522;7.020;2023-01-23T04:09:13;39.97;;;21.92;;
31638;SDS011;18248;51.522;7.020;2023-01-23T04:12:11;38.03;;;22.02;;
31638;SDS011;18248;51.522;7.020;2023-01-23T04:15:11;38.35;;;21.35;;
31638;SDS011;18248;51.522;7.020;2023-01-23T04:18:09;38.35;;;20.30;;
31638;SDS011;18248;51.522;7.020;2023-01-23T04:21:08;40.15;;;22.48;;
31638;SDS011;18248;51.522;7.020;2023-01-23T04:24:07;34.45;;;19.83;;
31638;SDS011;18248;51.522;7.020;2023-01-23T04:27:05;39.35;;;21.15;;
31638;SDS011;18248;51.522;7.020;2023-01-23T04:30:04;36.63;;;21.83;;
31638;SDS011;18248;51.522;7.020;2023-01-23T04:33:03;37.33;;;21.98;;
31638;SDS011;18248;51.522;7.020;2023-01-23T04:36:02;39.58;;;22.35;;
31638;SDS011;18248;51.522;7.020;2023-01-23T04:39:02;36.80;;;20.65;;
31638;SDS011;18248;51.522;7.020;2023-01-23T04:42:01;33.88;;;20.67;;
31638;SDS011;18248;51.522;7.020;2023-01-23T04:45:00;36.88;;;20.88;;
31638;SDS011;18248;51.522;7.020;2023-01-23T04:47:58;36.55;;;21.35;;
31638;SDS011;18248;51.522;7.020;2023-01-23T04:50:57;39.95;;;23.83;;
31638;SDS011;18248;51.522;7.020;2023-01-23T04:53:55;37.90;;;21.88;;
31638;SDS011;18248;51.522;7.020;2023-01-23T04:56:54;41.70;;;24.20;;
31638;SDS011;18248;51.522;7.020;2023-01-23T04:59:52;36.67;;;21.40;;
31638;SDS011;18248;51.522;7.020;2023-01-23T05:02:51;41.80;;;22.70;;
31638;SDS011;18248;51.522;7.020;2023-01-23T05:05:49;38.22;;;22.42;;
31638;SDS011;18248;51.522;7.020;2023-01-23T05:08:48;43.58;;;23.23;;
31638;SDS011;18248;51.522;7.020;2023-01-23T05:11:46;41.83;;;23.13;;
31638;SDS011;18248;51.522;7.020;2023-01-23T05:14:45;39.47;;;22.50;;
31638;SDS011;18248;51.522;7.020;2023-01-23T05:17:43;40.75;;;22.90;;
31638;SDS011;18248;51.522;7.020;2023-01-23T05:20:42;35.80;;;20.20;;
31638;SDS011;18248;51.522;7.020;2023-01-23T05:23:40;38.88;;;22.98;;
31638;SDS011;18248;51.522;7.020;2023-01-23T05:26:39;39.15;;;22.00;;
31638;SDS011;18248;51.522;7.020;2023-01-23T05:29:38;41.00;;;22.20;;
31638;SDS011;18248;51.522;7.020;2023-01-23T05:32:36;45.85;;;24.23;;
31638;SDS011;18248;51.522;7.020;2023-01-23T05:35:36;41.55;;;22.52;;
31638;SDS011;18248;51.522;7.020;2023-01-23T05:38:36;48.25;;;25.95;;
31638;SDS011;18248;51.522;7.020;2023-01-23T05:41:34;43.17;;;22.88;;
31638;SDS011;18248;51.522;7.020;2023-01-23T05:44:33;45.20;;;24.30;;
31638;SDS011;18248;51.522;7.020;2023-01-23T05:47:31;44.00;;;23.75;;
31638;SDS011;18248;51.522;7.020;2023-01-23T05:50:30;42.47;;;23.33;;
31638;SDS011;18248;51.522;7.020;2023-01-23T05:53:29;36.33;;;21.17;;
31638;SDS011;18248;51.522;7.020;2023-01-23T05:56:27;39.35;;;22.42;;
31638;SDS011;18248;51.522;7.020;2023-01-23T05:59:26;36.25;;;20.73;;
31638;SDS011;18248;51.522;7.020;2023-01-23T06:02:25;44.97;;;24.02;;
31638;SDS011;18248;51.522;7.020;2023-01-23T06:05:24;45.92;;;23.52;;
31638;SDS011;18248;51.522;7.020;2023-01-23T06:08:22;47.08;;;25.10;;
31638;SDS011;18248;51.522;7.020;2023-01-23T06:11:21;51.30;;;26.95;;
31638;SDS011;18248;51.522;7.020;2023-01-23T06:14:19;47.28;;;25.65;;
31638;SDS011;18248;51.522;7.020;2023-01-23T06:17:18;46.35;;;24.58;;
31638;SDS011;18248;51.522;7.020;2023-01-23T06:20:16;41.75;;;22.52;;
31638;SDS011;18248;51.522;7.020;2023-01-23T06:23:15;45.13;;;24.40;;
31638;SDS011;18248;51.522;7.020;2023-01-23T06:26:14;46.67;;;24.85;;
31638;SDS011;18248;51.522;7.020;2023-01-23T06:29:12;44.85;;;24.83;;
31638;SDS011;18248;51.522;7.020;2023-01-23T06:32:11;40.42;;;21.92;;
31638;SDS011;18248;51.522;7.020;2023-01-23T06:35:10;38.70;;;22.08;;
31638;SDS011;18248;51.522;7.020;2023-01-23T06:38:08;43.10;;;22.92;;
31638;SDS011;18248;51.522;7.020;2023-01-23T06:41:07;41.20;;;21.67;;
31638;SDS011;18248;51.522;7.020;2023-01-23T06:44:08;39.00;;;22.35;;
31638;SDS011;18248;51.522;7.020;2023-01-23T06:47:06;41.65;;;22.50;;
31638;SDS011;18248;51.522;7.020;2023-01-23T06:50:05;44.92;;;24.15;;
31638;SDS011;18248;51.522;7.020;2023-01-23T06:53:04;40.95;;;21.52;;
31638;SDS011;18248;51.522;7.020;2023-01-23T06:56:04;45.95;;;24.25;;
31638;SDS011;18248;51.522;7.020;2023-01-23T06:59:05;48.90;;;25.40;;
31638;SDS011;18248;51.522;7.020;2023-01-23T07:02:03;40.40;;;22.23;;
31638;SDS011;18248;51.522;7.020;2023-01-23T07:05:02;43.38;;;22.80;;
31638;SDS011;18248;51.522;7.020;2023-01-23T07:08:01;41.50;;;22.70;;
31638;SDS011;18248;51.522;7.020;2023-01-23T07:10:59;37.08;;;19.58;;
31638;SDS011;18248;51.522;7.020;2023-01-23T07:13:59;37.10;;;19.83;;
31638;SDS011;18248;51.522;7.020;2023-01-23T07:16:57;41.35;;;22.08;;
31638;SDS011;18248;51.522;7.020;2023-01-23T07:19:56;36.08;;;19.17;;
31638;SDS011;18248;51.522;7.020;2023-01-23T07:22:54;35.17;;;20.17;;
31638;SDS011;18248;51.522;7.020;2023-01-23T07:25:58;35.90;;;18.48;;
31638;SDS011;18248;51.522;7.020;2023-01-23T07:28:57;38.47;;;19.58;;
31638;SDS011;18248;51.522;7.020;2023-01-23T07:31:57;35.45;;;18.23;;
31638;SDS011;18248;51.522;7.020;2023-01-23T07:34:57;36.40;;;18.83;;
31638;SDS011;18248;51.522;7.020;2023-01-23T07:37:56;38.25;;;19.10;;
31638;SDS011;18248;51.522;7.020;2023-01-23T07:40:56;36.42;;;19.70;;
31638;SDS011;18248;51.522;7.020;2023-01-23T07:43:55;29.70;;;17.17;;
31638;SDS011;18248;51.522;7.020;2023-01-23T07:46:54;33.28;;;17.95;;
31638;SDS011;18248;51.522;7.020;2023-01-23T07:49:53;34.28;;;19.15;;
31638;SDS011;18248;51.522;7.020;2023-01-23T07:52:52;32.47;;;18.58;;
31638;SDS011;18248;51.522;7.020;2023-01-23T07:55:50;36.35;;;19.95;;
31638;SDS011;18248;51.522;7.020;2023-01-23T07:58:49;31.65;;;17.92;;
31638;SDS011;18248;51.522;7.020;2023-01-23T08:01:48;30.75;;;17.30;;
31638;SDS011;18248;51.522;7.020;2023-01-23T08:04:48;32.03;;;17.60;;
31638;SDS011;18248;51.522;7.020;2023-01-23T08:07:46;32.90;;;17.45;;
31638;SDS011;18248;51.522;7.020;2023-01-23T08:10:45;34.72;;;19.13;;
31638;SDS011;18248;51.522;7.020;2023-01-23T08:13:47;34.08;;;18.98;;
31638;SDS011;18248;51.522;7.020;2023-01-23T08:16:49;34.20;;;19.05;;
31638;SDS011;18248;51.522;7.020;2023-01-23T08:19:49;32.30;;;18.13;;
31638;SDS011;18248;51.522;7.020;2023-01-23T08:22:47;35.78;;;18.90;;
31638;SDS011;18248;51.522;7.020;2023-01-23T08:25:46;31.38;;;17.73;;
31638;SDS011;18248;51.522;7.020;2023-01-23T08:28:49;35.33;;;18.93;;
31638;SDS011;18248;51.522;7.020;2023-01-23T08:31:47;32.78;;;17.85;;
31638;SDS011;18248;51.522;7.020;2023-01-23T08:34:46;35.55;;;19.50;;
31638;SDS011;18248;51.522;7.020;2023-01-23T08:37:44;38.90;;;19.55;;
31638;SDS011;18248;51.522;7.020;2023-01-23T08:40:43;34.75;;;19.95;;
31638;SDS011;18248;51.522;7.020;2023-01-23T08:43:42;37.90;;;19.77;;
31638;SDS011;18248;51.522;7.020;2023-01-23T08:46:41;38.53;;;20.35;;
31638;SDS011;18248;51.522;7.020;2023-01-23T08:49:41;41.08;;;21.77;;
31638;SDS011;18248;51.522;7.020;2023-01-23T08:52:40;35.45;;;20.38;;
31638;SDS011;18248;51.522;7.020;2023-01-23T08:55:38;37.47;;;19.92;;
31638;SDS011;18248;51.522;7.020;2023-01-23T08:58:37;37.90;;;20.70;;
31638;SDS011;18248;51.522;7.020;2023-01-23T09:01:36;43.80;;;22.17;;
31638;SDS011;18248;51.522;7.020;2023-01-23T09:04:34;38.08;;;20.70;;
31638;SDS011;18248;51.522;7.020;2023-01-23T09:07:33;41.65;;;22.33;;
31638;SDS011;18248;51.522;7.020;2023-01-23T09:10:33;42.95;;;23.58;;
31638;SDS011;18248;51.522;7.020;2023-01-23T09:13:33;39.53;;;22.50;;
31638;SDS011;18248;51.522;7.020;2023-01-23T09:16:32;41.22;;;24.02;;
31638;SDS011;18248;51.522;7.020;2023-01-23T09:19:31;40.63;;;21.63;;
31638;SDS011;18248;51.522;7.020;2023-01-23T09:22:30;38.53;;;20.55;;
31638;SDS011;18248;51.522;7.020;2023-01-23T09:25:28;40.08;;;21.50;;
31638;SDS011;18248;51.522;7.020;2023-01-23T09:28:28;33.95;;;19.17;;
31638;SDS011;18248;51.522;7.020;2023-01-23T09:31:27;37.25;;;20.88;;
31638;SDS011;18248;51.522;7.020;2023-01-23T09:34:25;38.58;;;19.33;;
31638;SDS011;18248;51.522;7.020;2023-01-23T09:37:24;39.72;;;21.65;;
31638;SDS011;18248;51.522;7.020;2023-01-23T09:40:22;37.03;;;21.42;;
31638;SDS011;18248;51.522;7.020;2023-01-23T09:46:30;33.50;;;18.05;;
31638;SDS011;18248;51.522;7.020;2023-01-23T09:49:40;27.92;;;17.63;;
31638;SDS011;18248;51.522;7.020;2023-01-23T09:52:41;30.08;;;17.80;;
31638;SDS011;18248;51.522;7.020;2023-01-23T09:55:43;32.10;;;17.00;;
31638;SDS011;18248;51.522;7.020;2023-01-23T09:58:57;25.50;;;15.45;;
31638;SDS011;18248;51.522;7.020;2023-01-23T10:02:18;22.38;;;13.88;;
31638;SDS011;18248;51.522;7.020;2023-01-23T10:05:19;28.38;;;16.25;;
31638;SDS011;18248;51.522;7.020;2023-01-23T10:21:24;22.95;;;14.15;;
31638;SDS011;18248;51.522;7.020;2023-01-23T10:27:50;23.05;;;14.48;;
31638;SDS011;18248;51.522;7.020;2023-01-23T10:30:54;20.55;;;12.82;;
31638;SDS011;18248;51.522;7.020;2023-01-23T10:34:05;23.65;;;14.02;;
31638;SDS011;18248;51.522;7.020;2023-01-23T10:40:27;22.15;;;12.85;;
31638;SDS011;18248;51.522;7.020;2023-01-23T10:43:45;23.52;;;14.68;;
31638;SDS011;18248;51.522;7.020;2023-01-23T10:46:57;26.55;;;15.10;;
31638;SDS011;18248;51.522;7.020;2023-01-23T10:49:58;25.38;;;13.77;;
31638;SDS011;18248;51.522;7.020;2023-01-23T10:53:04;24.23;;;14.02;;
31638;SDS011;18248;51.522;7.020;2023-01-23T10:56:10;20.23;;;13.80;;
31638;SDS011;18248;51.522;7.020;2023-01-23T10:59:24;25.30;;;14.00;;
31638;SDS011;18248;51.522;7.020;2023-01-23T11:02:35;21.85;;;13.57;;
31638;SDS011;18248;51.522;7.020;2023-01-23T11:05:37;21.17;;;12.52;;
31638;SDS011;18248;51.522;7.020;2023-01-23T11:08:49;23.90;;;14.57;;
31638;SDS011;18248;51.522;7.020;2023-01-23T11:12:01;16.95;;;11.30;;
31638;SDS011;18248;51.522;7.020;2023-01-23T11:18:30;18.42;;;11.32;;
31638;SDS011;18248;51.522;7.020;2023-01-23T11:21:37;18.13;;;11.30;;
31638;SDS011;18248;51.522;7.020;2023-01-23T11:24:47;15.95;;;10.30;;
31638;SDS011;18248;51.522;7.020;2023-01-23T11:27:54;18.63;;;11.95;;
31638;SDS011;18248;51.522;7.020;2023-01-23T11:34:06;16.63;;;10.70;;
31638;SDS011;18248;51.522;7.020;2023-01-23T11:40:12;17.33;;;11.07;;
31638;SDS011;18248;51.522;7.020;2023-01-23T11:43:14;17.35;;;11.23;;
31638;SDS011;18248;51.522;7.020;2023-01-23T11:53:01;17.55;;;10.20;;
31638;SDS011;18248;51.522;7.020;2023-01-23T11:56:12;17.17;;;11.00;;
31638;SDS011;18248;51.522;7.020;2023-01-23T11:59:45;17.98;;;11.32;;
31638;SDS011;18248;51.522;7.020;2023-01-23T12:13:46;19.13;;;12.40;;
31638;SDS011;18248;51.522;7.020;2023-01-23T12:23:34;19.90;;;12.32;;
31638;SDS011;18248;51.522;7.020;2023-01-23T12:26:49;20.85;;;13.43;;
31638;SDS011;18248;51.522;7.020;2023-01-23T12:37:14;20.77;;;13.15;;
31638;SDS011;18248;51.522;7.020;2023-01-23T12:40:32;19.65;;;13.40;;
31638;SDS011;18248;51.522;7.020;2023-01-23T12:43:42;22.02;;;13.50;;
31638;SDS011;18248;51.522;7.020;2023-01-23T12:47:04;23.48;;;14.48;;
31638;SDS011;18248;51.522;7.020;2023-01-23T12:50:35;21.60;;;15.05;;
31638;SDS011;18248;51.522;7.020;2023-01-23T12:53:41;23.48;;;15.23;;
31638;SDS011;18248;51.522;7.020;2023-01-23T12:56:42;27.73;;;16.75;;
31638;SDS011;18248;51.522;7.020;2023-01-23T12:59:55;25.90;;;16.00;;
31638;SDS011;18248;51.522;7.020;2023-01-23T13:06:40;24.83;;;16.02;;
31638;SDS011;18248;51.522;7.020;2023-01-23T13:10:04;22.85;;;14.02;;
31638;SDS011;18248;51.522;7.020;2023-01-23T13:13:12;24.42;;;14.02;;
31638;SDS011;18248;51.522;7.020;2023-01-23T13:16:13;24.63;;;15.43;;
31638;SDS011;18248;51.522;7.020;2023-01-23T13:19:22;21.63;;;13.43;;
31638;SDS011;18248;51.522;7.020;2023-01-23T13:22:44;24.42;;;13.60;;
31638;SDS011;18248;51.522;7.020;2023-01-23T13:25:43;24.42;;;14.40;;
31638;SDS011;18248;51.522;7.020;2023-01-23T13:28:42;22.73;;;13.65;;
31638;SDS011;18248;51.522;7.020;2023-01-23T13:31:44;22.25;;;14.38;;
31638;SDS011;18248;51.522;7.020;2023-01-23T13:34:47;24.52;;;14.77;;
31638;SDS011;18248;51.522;7.020;2023-01-23T13:37:47;25.30;;;15.20;;
31638;SDS011;18248;51.522;7.020;2023-01-23T13:47:25;21.45;;;14.48;;
31638;SDS011;18248;51.522;7.020;2023-01-23T13:50:48;23.83;;;14.48;;
31638;SDS011;18248;51.522;7.020;2023-01-23T13:53:50;22.77;;;14.15;;
31638;SDS011;18248;51.522;7.020;2023-01-23T13:57:09;23.80;;;15.02;;
31638;SDS011;18248;51.522;7.020;2023-01-23T14:00:15;26.60;;;16.98;;
31638;SDS011;18248;51.522;7.020;2023-01-23T14:03:27;29.48;;;17.95;;
31638;SDS011;18248;51.522;7.020;2023-01-23T14:06:48;28.45;;;18.08;;
31638;SDS011;18248;51.522;7.020;2023-01-23T14:09:47;24.95;;;16.60;;
31638;SDS011;18248;51.522;7.020;2023-01-23T14:12:48;27.17;;;17.80;;
31638;SDS011;18248;51.522;7.020;2023-01-23T14:15:48;27.83;;;17.95;;
31638;SDS011;18248;51.522;7.020;2023-01-23T14:22:22;33.08;;;19.98;;
31638;SDS011;18248;51.522;7.020;2023-01-23T14:25:25;31.80;;;19.63;;
31638;SDS011;18248;51.522;7.020;2023-01-23T14:28:24;27.23;;;17.05;;
31638;SDS011;18248;51.522;7.020;2023-01-23T14:31:31;29.67;;;17.63;;
31638;SDS011;18248;51.522;7.020;2023-01-23T14:34:37;31.55;;;19.48;;
31638;SDS011;18248;51.522;7.020;2023-01-23T14:37:36;25.38;;;15.90;;
31638;SDS011;18248;51.522;7.020;2023-01-23T14:40:35;27.58;;;16.08;;
31638;SDS011;18248;51.522;7.020;2023-01-23T14:43:40;33.58;;;19.83;;
31638;SDS011;18248;51.522;7.020;2023-01-23T14:46:40;25.02;;;16.20;;
31638;SDS011;18248;51.522;7.020;2023-01-23T14:49:40;26.98;;;17.58;;
31638;SDS011;18248;51.522;7.020;2023-01-23T14:52:39;28.52;;;17.88;;
31638;SDS011;18248;51.522;7.020;2023-01-23T14:55:38;26.05;;;16.48;;
31638;SDS011;18248;51.522;7.020;2023-01-23T14:58:39;23.88;;;15.32;;
31638;SDS011;18248;51.522;7.020;2023-01-23T15:01:39;26.50;;;16.30;;
31638;SDS011;18248;51.522;7.020;2023-01-23T15:04:37;26.30;;;16.63;;
31638;SDS011;18248;51.522;7.020;2023-01-23T15:07:42;32.55;;;18.98;;
31638;SDS011;18248;51.522;7.020;2023-01-23T15:13:43;28.23;;;17.77;;
31638;SDS011;18248;51.522;7.020;2023-01-23T15:16:47;29.50;;;18.67;;
31638;SDS011;18248;51.522;7.020;2023-01-23T15:19:51;28.80;;;18.35;;
31638;SDS011;18248;51.522;7.020;2023-01-23T15:22:54;30.50;;;18.83;;
31638;SDS011;18248;51.522;7.020;2023-01-23T15:32:14;29.50;;;18.73;;
31638;SDS011;18248;51.522;7.020;2023-01-23T15:35:18;37.50;;;19.27;;
31638;SDS011;18248;51.522;7.020;2023-01-23T15:38:17;30.42;;;18.17;;
31638;SDS011;18248;51.522;7.020;2023-01-23T15:41:15;25.10;;;16.25;;
31638;SDS011;18248;51.522;7.020;2023-01-23T15:44:15;30.00;;;17.48;;
31638;SDS011;18248;51.522;7.020;2023-01-23T15:47:16;25.63;;;15.85;;
31638;SDS011;18248;51.522;7.020;2023-01-23T15:50:14;28.98;;;17.27;;
31638;SDS011;18248;51.522;7.020;2023-01-23T15:53:13;22.63;;;15.40;;
31638;SDS011;18248;51.522;7.020;2023-01-23T15:56:20;25.65;;;15.27;;
31638;SDS011;18248;51.522;7.020;2023-01-23T15:59:24;30.05;;;17.35;;
31638;SDS011;18248;51.522;7.020;2023-01-23T16:02:23;23.55;;;14.07;;
31638;SDS011;18248;51.522;7.020;2023-01-23T16:05:23;25.08;;;13.70;;
31638;SDS011;18248;51.522;7.020;2023-01-23T16:08:23;24.05;;;15.50;;
31638;SDS011;18248;51.522;7.020;2023-01-23T16:11:22;25.75;;;16.75;;
31638;SDS011;18248;51.522;7.020;2023-01-23T16:14:21;24.65;;;15.77;;
31638;SDS011;18248;51.522;7.020;2023-01-23T16:17:19;26.35;;;15.65;;
31638;SDS011;18248;51.522;7.020;2023-01-23T16:20:22;23.30;;;15.80;;
31638;SDS011;18248;51.522;7.020;2023-01-23T16:23:27;23.65;;;15.70;;
31638;SDS011;18248;51.522;7.020;2023-01-23T16:26:26;25.50;;;16.63;;
31638;SDS011;18248;51.522;7.020;2023-01-23T16:29:26;23.75;;;15.00;;
31638;SDS011;18248;51.522;7.020;2023-01-23T16:32:26;22.33;;;15.32;;
31638;SDS011;18248;51.522;7.020;2023-01-23T16:35:25;28.13;;;15.23;;
31638;SDS011;18248;51.522;7.020;2023-01-23T16:38:24;25.02;;;16.40;;
31638;SDS011;18248;51.522;7.020;2023-01-23T16:41:25;21.42;;;14.30;;
31638;SDS011;18248;51.522;7.020;2023-01-23T16:44:25;20.42;;;12.90;;
31638;SDS011;18248;51.522;7.020;2023-01-23T16:47:24;21.88;;;13.25;;
31638;SDS011;18248;51.522;7.020;2023-01-23T16:50:30;21.58;;;13.82;;
31638;SDS011;18248;51.522;7.020;2023-01-23T16:53:35;21.48;;;13.80;;
31638;SDS011;18248;51.522;7.020;2023-01-23T16:56:38;24.93;;;15.60;;
31638;SDS011;18248;51.522;7.020;2023-01-23T16:59:38;26.30;;;15.75;;
31638;SDS011;18248;51.522;7.020;2023-01-23T17:02:37;23.40;;;15.13;;
31638;SDS011;18248;51.522;7.020;2023-01-23T17:05:36;22.98;;;15.45;;
31638;SDS011;18248;51.522;7.020;2023-01-23T17:08:34;22.50;;;14.75;;
31638;SDS011;18248;51.522;7.020;2023-01-23T17:11:37;23.15;;;14.85;;
31638;SDS011;18248;51.522;7.020;2023-01-23T17:14:41;24.90;;;14.90;;
31638;SDS011;18248;51.522;7.020;2023-01-23T17:17:41;23.05;;;14.23;;
31638;SDS011;18248;51.522;7.020;2023-01-23T17:20:42;24.23;;;14.57;;
31638;SDS011;18248;51.522;7.020;2023-01-23T17:23:40;20.65;;;12.23;;
31638;SDS011;18248;51.522;7.020;2023-01-23T17:26:39;21.70;;;13.63;;
31638;SDS011;18248;51.522;7.020;2023-01-23T17:29:37;24.23;;;14.68;;
31638;SDS011;18248;51.522;7.020;2023-01-23T17:32:36;22.15;;;14.43;;
31638;SDS011;18248;51.522;7.020;2023-01-23T17:35:36;22.85;;;14.80;;
31638;SDS011;18248;51.522;7.020;2023-01-23T17:38:34;22.60;;;13.63;;
31638;SDS011;18248;51.522;7.020;2023-01-23T17:41:35;20.25;;;13.43;;
31638;SDS011;18248;51.522;7.020;2023-01-23T17:44:34;19.63;;;13.25;;
31638;SDS011;18248;51.522;7.020;2023-01-23T17:47:32;17.75;;;11.88;;
31638;SDS011;18248;51.522;7.020;2023-01-23T17:50:32;18.83;;;11.27;;
31638;SDS011;18248;51.522;7.020;2023-01-23T17:53:30;16.55;;;11.07;;
31638;SDS011;18248;51.522;7.020;2023-01-23T17:56:29;16.83;;;10.98;;
31638;SDS011;18248;51.522;7.020;2023-01-23T17:59:27;17.63;;;11.30;;
31638;SDS011;18248;51.522;7.020;2023-01-23T18:02:26;19.05;;;11.90;;
31638;SDS011;18248;51.522;7.020;2023-01-23T18:05:25;20.23;;;12.50;;
31638;SDS011;18248;51.522;7.020;2023-01-23T18:08:24;17.80;;;11.43;;
31638;SDS011;18248;51.522;7.020;2023-01-23T18:11:23;17.80;;;12.32;;
31638;SDS011;18248;51.522;7.020;2023-01-23T18:14:29;29.00;;;12.43;;
31638;SDS011;18248;51.522;7.020;2023-01-23T18:17:54;18.48;;;12.05;;
31638;SDS011;18248;51.522;7.020;2023-01-23T18:21:00;17.40;;;11.25;;
31638;SDS011;18248;51.522;7.020;2023-01-23T18:24:00;17.25;;;11.57;;
31638;SDS011;18248;51.522;7.020;2023-01-23T18:26:59;17.25;;;11.38;;
31638;SDS011;18248;51.522;7.020;2023-01-23T18:33:25;18.20;;;12.00;;
31638;SDS011;18248;51.522;7.020;2023-01-23T18:36:34;20.48;;;13.32;;
31638;SDS011;18248;51.522;7.020;2023-01-23T18:40:13;21.25;;;11.93;;
31638;SDS011;18248;51.522;7.020;2023-01-23T18:43:42;19.63;;;11.95;;
31638;SDS011;18248;51.522;7.020;2023-01-23T18:46:47;18.70;;;12.07;;
31638;SDS011;18248;51.522;7.020;2023-01-23T18:49:45;18.77;;;11.38;;
31638;SDS011;18248;51.522;7.020;2023-01-23T18:56:51;19.60;;;11.82;;
31638;SDS011;18248;51.522;7.020;2023-01-23T19:03:13;21.08;;;11.73;;
31638;SDS011;18248;51.522;7.020;2023-01-23T19:06:17;16.38;;;11.15;;
31638;SDS011;18248;51.522;7.020;2023-01-23T19:09:21;19.33;;;12.25;;
31638;SDS011;18248;51.522;7.020;2023-01-23T19:12:23;19.40;;;13.43;;
31638;SDS011;18248;51.522;7.020;2023-01-23T19:15:29;20.27;;;13.32;;
31638;SDS011;18248;51.522;7.020;2023-01-23T19:21:37;20.63;;;13.35;;
31638;SDS011;18248;51.522;7.020;2023-01-23T19:24:38;17.00;;;11.38;;
31638;SDS011;18248;51.522;7.020;2023-01-23T19:27:36;19.13;;;12.25;;
31638;SDS011;18248;51.522;7.020;2023-01-23T19:30:35;20.65;;;12.80;;
31638;SDS011;18248;51.522;7.020;2023-01-23T19:33:35;21.40;;;13.13;;
31638;SDS011;18248;51.522;7.020;2023-01-23T19:36:35;19.63;;;12.52;;